METAR Data
IDs: Format: Raw Decoded Include TAF

Data at: 1600 UTC 18 Feb 2019

METAR for:KSLB (Storm Lake Muni, IA, US)
Text:KSLB 181555Z AUTO 35005KT 10SM CLR M14/M17 A3041 RMK AO2
Temperature:-14.0°C ( 7°F)
Dewpoint:-17.0°C ( 1°F) [RH = 78%]
Pressure (altimeter):30.41 inches Hg (1029.9 mb)
Winds:from the N (350 degrees) at 6 MPH (5 knots; 2.6 m/s)
Visibility:10 or more sm (16+ km)
Ceiling:at least 12,000 feet AGL
Clouds:sky clear below 12,000 feet AGL
QC Flag:automated observation with no human augmentation